createdAt,value
2022-08-02T00:01:36.164Z,2.00
2022-08-02T00:04:05.479Z,2.00
2022-08-02T00:06:35.075Z,2.60
2022-08-02T00:09:06.039Z,2.00
2022-08-02T00:11:35.321Z,1.60
2022-08-02T00:14:05.090Z,1.60
2022-08-02T00:16:37.595Z,2.00
2022-08-02T00:19:04.965Z,1.00
2022-08-02T00:21:34.163Z,0.80
2022-08-02T00:24:29.017Z,1.00
2022-08-02T00:26:34.090Z,1.80
2022-08-02T00:29:03.298Z,0.80
2022-08-02T00:31:33.192Z,1.00
2022-08-02T00:34:05.240Z,1.00
2022-08-02T00:36:33.245Z,1.20
2022-08-02T00:39:02.341Z,1.00
2022-08-02T00:41:31.554Z,1.00
2022-08-02T00:44:00.624Z,2.00
2022-08-02T00:46:29.709Z,1.20
2022-08-02T00:48:58.961Z,0.40
2022-08-02T00:51:28.137Z,0.80
2022-08-02T00:53:57.313Z,0.40
2022-08-02T00:56:29.490Z,1.20
2022-08-02T00:58:58.690Z,1.00
2022-08-02T01:01:56.627Z,1.00
2022-08-02T01:04:13.299Z,1.00
2022-08-02T01:06:43.863Z,1.60
2022-08-02T01:09:13.118Z,1.00
2022-08-02T01:11:42.703Z,0.40
2022-08-02T01:14:14.840Z,1.60
2022-08-02T01:16:55.655Z,1.00
2022-08-02T01:19:52.290Z,1.00
2022-08-02T01:23:00.710Z,2.00
2022-08-02T01:25:29.889Z,2.00
2022-08-02T01:28:34.957Z,2.00
2022-08-02T01:31:15.919Z,2.00
2022-08-02T01:33:59.742Z,2.20
2022-08-02T01:36:31.811Z,2.00
2022-08-02T01:39:02.257Z,3.20
2022-08-02T01:41:33.775Z,2.40
2022-08-02T01:44:05.033Z,1.60
2022-08-02T01:46:35.763Z,2.60
2022-08-02T01:49:09.446Z,3.20
2022-08-02T01:51:59.150Z,2.60
2022-08-02T01:54:30.798Z,2.00
2022-08-02T01:57:02.767Z,2.20
2022-08-02T01:59:33.813Z,4.20
2022-08-02T02:02:04.201Z,2.80
2022-08-02T02:04:34.454Z,3.20
2022-08-02T02:07:04.754Z,2.00
2022-08-02T02:09:36.742Z,5.40
2022-08-02T02:12:13.458Z,3.20
2022-08-02T02:14:42.133Z,3.00
2022-08-02T02:17:54.839Z,3.40
2022-08-02T02:19:47.765Z,3.80
2022-08-02T02:22:17.173Z,2.00
2022-08-02T02:24:46.902Z,5.40
2022-08-02T02:27:18.635Z,2.40
2022-08-02T02:29:50.814Z,5.80
2022-08-02T02:32:22.081Z,2.60
2022-08-02T02:34:52.544Z,2.80
2022-08-02T02:37:24.538Z,6.00
2022-08-02T02:39:55.507Z,3.00
2022-08-02T02:42:27.464Z,6.80
2022-08-02T02:44:58.237Z,3.60
2022-08-02T02:47:41.134Z,2.80
2022-08-02T02:50:02.680Z,3.00
2022-08-02T02:52:32.632Z,1.00
2022-08-02T02:55:03.166Z,5.80
2022-08-02T02:57:34.109Z,3.00
2022-08-02T03:00:04.109Z,6.20
2022-08-02T03:02:33.433Z,4.80
2022-08-02T03:05:04.327Z,6.00
2022-08-02T03:07:34.932Z,3.80
2022-08-02T03:10:07.149Z,3.80
2022-08-02T03:12:37.606Z,5.00
2022-08-02T03:15:09.478Z,6.00
2022-08-02T03:17:43.512Z,3.20
2022-08-02T03:20:17.930Z,5.20
2022-08-02T03:22:48.419Z,6.00
2022-08-02T03:25:18.947Z,5.20
2022-08-02T03:27:48.513Z,6.20
2022-08-02T03:30:17.629Z,3.00
2022-08-02T03:32:49.715Z,5.80
2022-08-02T03:35:24.076Z,4.40
2022-08-02T03:37:54.845Z,4.00
2022-08-02T03:40:25.106Z,4.80
2022-08-02T03:42:54.961Z,5.80
2022-08-02T03:45:25.414Z,6.40
2022-08-02T03:47:54.799Z,6.60
2022-08-02T03:50:26.192Z,6.60
2022-08-02T03:52:56.017Z,6.60
2022-08-02T03:55:25.406Z,6.40
2022-08-02T03:57:54.706Z,7.40
2022-08-02T04:00:24.993Z,8.00
2022-08-02T04:02:54.313Z,9.60
2022-08-02T04:05:23.835Z,7.60
2022-08-02T04:08:02.729Z,7.60
2022-08-02T04:10:23.853Z,8.00
2022-08-02T04:12:53.415Z,7.20
2022-08-02T04:15:24.082Z,14.40
2022-08-02T04:17:59.138Z,6.40
2022-08-02T04:20:36.302Z,6.80
2022-08-02T04:23:08.262Z,5.00
2022-08-02T04:25:40.810Z,5.00
2022-08-02T04:28:17.107Z,7.40
2022-08-02T04:30:43.803Z,7.00
2022-08-02T04:33:13.852Z,6.20
2022-08-02T04:35:43.317Z,7.00
2022-08-02T04:38:15.109Z,7.00
2022-08-02T04:40:52.546Z,7.20
2022-08-02T04:43:22.279Z,7.40
2022-08-02T04:45:56.338Z,5.80
2022-08-02T04:48:25.650Z,5.40
2022-08-02T04:50:54.864Z,7.20
2022-08-02T04:53:24.073Z,5.00
2022-08-02T04:55:53.140Z,4.80
2022-08-02T04:58:40.124Z,10.00
2022-08-02T05:00:53.088Z,8.40
2022-08-02T05:03:22.401Z,5.80
2022-08-02T05:05:51.465Z,6.40
2022-08-02T05:08:20.554Z,7.00
2022-08-02T05:10:49.674Z,7.00
2022-08-02T05:13:18.678Z,7.40
2022-08-02T05:15:51.904Z,7.80
2022-08-02T05:18:21.027Z,6.20
2022-08-02T05:20:51.459Z,4.00
2022-08-02T05:23:20.970Z,4.60
2022-08-02T05:25:50.167Z,7.20
2022-08-02T05:28:19.260Z,6.80
2022-08-02T05:30:48.316Z,7.20
2022-08-02T05:33:19.195Z,6.80
2022-08-02T05:35:48.338Z,7.80
2022-08-02T05:38:17.506Z,12.20
2022-08-02T05:40:54.884Z,5.60
2022-08-02T05:43:19.158Z,5.20
2022-08-02T05:45:49.884Z,4.00
2022-08-02T05:48:18.990Z,2.20
2022-08-02T05:50:51.157Z,5.20
2022-08-02T05:53:32.003Z,4.80
2022-08-02T05:56:28.420Z,6.80
2022-08-02T05:59:06.466Z,5.40
2022-08-02T06:01:38.444Z,4.80
2022-08-02T06:04:10.093Z,32.20
2022-08-02T06:06:41.346Z,5.20
2022-08-02T06:09:23.015Z,6.40
2022-08-02T06:12:11.563Z,4.40
2022-08-02T06:14:24.657Z,2.40
2022-08-02T06:16:56.972Z,3.60
2022-08-02T06:19:27.228Z,3.60
2022-08-02T06:22:32.097Z,1.00
2022-08-02T06:24:28.178Z,2.80
2022-08-02T06:26:58.148Z,3.20
2022-08-02T06:29:28.344Z,3.40
2022-08-02T06:31:58.096Z,4.60
2022-08-02T06:34:27.454Z,4.00
2022-08-02T06:37:20.785Z,4.80
2022-08-02T06:39:55.507Z,6.00
2022-08-02T06:42:27.675Z,5.40
2022-08-02T06:44:58.068Z,6.20
2022-08-02T06:47:28.100Z,7.40
2022-08-02T06:49:58.779Z,5.40
2022-08-02T06:52:31.491Z,6.80
2022-08-02T06:55:02.622Z,6.00
2022-08-02T06:57:32.819Z,6.40
2022-08-02T07:00:04.687Z,7.80
2022-08-02T07:02:34.146Z,7.40
2022-08-02T07:05:03.634Z,7.00
2022-08-02T07:07:32.760Z,7.60
2022-08-02T07:10:02.462Z,7.00
2022-08-02T07:12:33.571Z,6.80
2022-08-02T07:15:04.950Z,6.60
2022-08-02T07:17:34.653Z,9.80
2022-08-02T07:20:04.875Z,6.40
2022-08-02T07:22:34.109Z,7.00
2022-08-02T07:25:03.795Z,6.60
2022-08-02T07:27:33.192Z,7.80
2022-08-02T07:30:02.839Z,7.40
2022-08-02T07:32:33.556Z,8.40
2022-08-02T07:35:06.961Z,9.00
2022-08-02T07:37:55.403Z,9.40
2022-08-02T07:40:13.463Z,8.20
2022-08-02T07:42:39.989Z,8.80
2022-08-02T07:45:09.703Z,8.00
2022-08-02T07:47:41.213Z,9.80
2022-08-02T07:50:12.316Z,8.40
2022-08-02T07:52:42.682Z,8.00
2022-08-02T07:55:13.705Z,7.00
2022-08-02T07:57:46.504Z,7.80
2022-08-02T08:00:16.310Z,8.60
2022-08-02T08:02:46.037Z,9.00
2022-08-02T08:05:15.318Z,4.20
2022-08-02T08:07:44.522Z,8.20
2022-08-02T08:10:13.752Z,5.20
2022-08-02T08:12:42.815Z,8.00
2022-08-02T08:15:12.699Z,5.60
2022-08-02T08:17:41.828Z,6.80
2022-08-02T08:20:15.612Z,6.20
2022-08-02T08:22:42.191Z,5.20
2022-08-02T08:25:11.574Z,5.40
2022-08-02T08:27:42.095Z,6.60
2022-08-02T08:30:12.442Z,7.80
2022-08-02T08:32:41.725Z,6.40
2022-08-02T08:35:11.066Z,7.40
2022-08-02T08:37:40.955Z,7.80
2022-08-02T08:40:12.598Z,7.00
2022-08-02T08:42:42.065Z,6.80
2022-08-02T08:45:11.914Z,7.60
2022-08-02T08:47:43.788Z,7.20
2022-08-02T08:50:21.304Z,7.80
2022-08-02T08:53:04.245Z,7.00
2022-08-02T08:55:35.176Z,6.20
2022-08-02T08:58:05.537Z,7.60
2022-08-02T09:00:37.150Z,6.20
2022-08-02T09:03:08.764Z,7.60
2022-08-02T09:05:39.720Z,6.80
2022-08-02T09:08:13.477Z,7.80
2022-08-02T09:10:45.257Z,0.00
2022-08-02T09:13:31.190Z,7.60
2022-08-02T09:16:11.739Z,7.20
2022-08-02T09:18:44.029Z,8.20
2022-08-02T09:21:15.592Z,7.00
2022-08-02T09:23:48.322Z,8.40
2022-08-02T09:26:19.987Z,8.40
2022-08-02T09:28:51.945Z,8.80
2022-08-02T09:31:23.901Z,7.20
2022-08-02T09:34:02.267Z,8.80
2022-08-02T09:36:43.082Z,6.20
2022-08-02T09:39:15.152Z,7.80
2022-08-02T09:41:46.438Z,22.80
2022-08-02T09:44:17.897Z,4.00
2022-08-02T09:46:47.947Z,8.00
2022-08-02T09:49:19.736Z,8.20
2022-08-02T09:51:51.792Z,7.40
2022-08-02T09:54:25.921Z,11.00
2022-08-02T09:57:00.590Z,7.40
2022-08-02T09:59:31.240Z,7.60
2022-08-02T10:02:04.072Z,9.00
2022-08-02T10:04:52.966Z,8.60
2022-08-02T10:07:05.846Z,8.80
2022-08-02T10:09:38.026Z,8.00
2022-08-02T10:12:07.435Z,9.40
2022-08-02T10:14:36.703Z,8.20
2022-08-02T10:17:06.507Z,10.80
2022-08-02T10:19:59.780Z,10.80
2022-08-02T10:22:09.082Z,9.80
2022-08-02T10:24:47.518Z,10.60
2022-08-02T10:27:13.883Z,10.60
2022-08-02T10:29:55.043Z,7.80
2022-08-02T10:32:24.839Z,9.00
2022-08-02T10:35:02.754Z,9.80
2022-08-02T10:37:33.778Z,10.80
2022-08-02T10:40:03.338Z,10.40
2022-08-02T10:42:49.892Z,11.00
2022-08-02T10:45:21.620Z,10.00
2022-08-02T10:48:12.002Z,11.20
2022-08-02T10:50:53.321Z,10.00
2022-08-02T10:53:27.390Z,9.00
2022-08-02T10:55:59.173Z,12.80
2022-08-02T10:58:31.876Z,10.80
2022-08-02T11:01:06.340Z,11.00
2022-08-02T11:03:40.312Z,11.80
2022-08-02T11:06:24.718Z,10.60
2022-08-02T11:08:45.661Z,11.60
2022-08-02T11:11:19.988Z,10.60
2022-08-02T11:14:10.910Z,10.00
2022-08-02T11:17:02.854Z,9.80
2022-08-02T11:19:32.345Z,11.40
2022-08-02T11:22:10.440Z,9.20
2022-08-02T11:24:41.662Z,11.80
2022-08-02T11:27:13.028Z,10.80
2022-08-02T11:29:45.201Z,11.80
2022-08-02T11:32:20.025Z,9.40
2022-08-02T11:34:52.018Z,9.40
2022-08-02T11:37:36.755Z,10.20
2022-08-02T11:40:19.810Z,4.60
2022-08-02T11:42:44.618Z,10.60
2022-08-02T11:45:20.803Z,11.60
2022-08-02T11:47:54.902Z,10.80
2022-08-02T11:50:30.225Z,8.60
2022-08-02T11:52:56.470Z,10.60
2022-08-02T11:55:30.423Z,11.40
2022-08-02T11:58:06.345Z,11.80
2022-08-02T12:00:36.575Z,12.00
2022-08-02T12:03:07.174Z,10.80
2022-08-02T12:06:04.561Z,11.60
2022-08-02T12:08:10.776Z,11.80
2022-08-02T12:10:43.648Z,10.60
2022-08-02T12:13:12.828Z,9.80
2022-08-02T12:15:45.535Z,12.60
2022-08-02T12:18:35.742Z,10.80
2022-08-02T12:21:05.770Z,10.60
2022-08-02T12:23:36.296Z,13.60
2022-08-02T12:26:09.480Z,11.20
2022-08-02T12:28:41.936Z,13.00
2022-08-02T12:31:14.490Z,13.20
2022-08-02T12:33:49.230Z,12.00
2022-08-02T12:36:23.648Z,12.40
2022-08-02T12:38:54.330Z,11.20
2022-08-02T12:41:24.010Z,12.80
2022-08-02T12:43:56.145Z,13.80
2022-08-02T12:46:26.847Z,12.80
2022-08-02T12:49:16.932Z,13.60
2022-08-02T12:51:56.548Z,11.80
2022-08-02T12:54:31.090Z,13.80
2022-08-02T12:56:53.315Z,15.60
2022-08-02T12:59:39.991Z,12.60
2022-08-02T13:02:12.802Z,13.40
2022-08-02T13:04:49.965Z,16.60
2022-08-02T13:07:13.953Z,10.00
2022-08-02T13:09:45.891Z,16.00
2022-08-02T13:12:15.987Z,16.40
2022-08-02T13:14:45.462Z,17.00
2022-08-02T13:17:14.811Z,16.20
2022-08-02T13:19:44.005Z,18.80
2022-08-02T13:22:13.557Z,18.80
2022-08-02T13:24:55.850Z,14.00
2022-08-02T13:27:14.875Z,17.20
2022-08-02T13:29:44.296Z,17.20
2022-08-02T13:32:13.789Z,17.00
2022-08-02T13:34:43.396Z,17.00
2022-08-02T13:37:12.809Z,18.40
2022-08-02T13:39:42.591Z,17.80
2022-08-02T13:42:17.165Z,18.20
2022-08-02T13:44:43.670Z,16.20
2022-08-02T13:47:13.080Z,18.20
2022-08-02T13:49:50.969Z,18.40
2022-08-02T13:52:13.919Z,18.20
2022-08-02T13:54:43.431Z,19.80
2022-08-02T13:57:12.524Z,17.20
2022-08-02T13:59:56.362Z,18.40
2022-08-02T14:02:12.982Z,17.00
2022-08-02T14:04:43.400Z,19.40
2022-08-02T14:07:13.105Z,19.00
2022-08-02T14:09:43.797Z,19.00
2022-08-02T14:12:13.543Z,18.20
2022-08-02T14:14:42.847Z,19.20
2022-08-02T14:17:11.970Z,17.20
2022-08-02T14:19:41.179Z,15.20
2022-08-02T14:22:10.774Z,19.60
2022-08-02T14:24:41.991Z,20.40
2022-08-02T14:27:11.397Z,18.80
2022-08-02T14:29:40.505Z,19.00
2022-08-02T14:32:10.350Z,18.60
2022-08-02T14:34:39.936Z,19.00
2022-08-02T14:37:09.163Z,16.40
2022-08-02T14:39:42.879Z,17.60
2022-08-02T14:42:09.364Z,18.00
2022-08-02T14:44:39.057Z,19.00
2022-08-02T14:47:08.153Z,16.20
2022-08-02T14:49:41.724Z,18.40
2022-08-02T14:52:08.207Z,20.60
2022-08-02T14:54:37.396Z,19.00
2022-08-02T14:57:06.662Z,20.60
2022-08-02T14:59:35.889Z,13.80
2022-08-02T15:02:06.616Z,19.00
2022-08-02T15:04:42.447Z,16.80
2022-08-02T15:07:08.321Z,15.60
2022-08-02T15:09:39.776Z,17.60
2022-08-02T15:12:09.508Z,16.60
2022-08-02T15:14:39.705Z,16.40
2022-08-02T15:17:10.224Z,16.40
2022-08-02T15:19:58.868Z,14.80
2022-08-02T15:22:13.204Z,14.20
2022-08-02T15:24:43.224Z,16.40
2022-08-02T15:27:14.567Z,13.40
2022-08-02T15:29:45.114Z,14.20
2022-08-02T15:32:15.113Z,16.00
2022-08-02T15:34:44.524Z,18.20
2022-08-02T15:37:13.722Z,18.40
2022-08-02T15:39:42.936Z,17.00
2022-08-02T15:42:12.301Z,17.40
2022-08-02T15:44:41.736Z,15.20
2022-08-02T15:47:10.820Z,17.20
2022-08-02T15:49:41.796Z,15.20
2022-08-02T15:52:12.056Z,15.20
2022-08-02T15:54:41.387Z,18.60
2022-08-02T15:57:10.609Z,15.00
2022-08-02T15:59:39.887Z,17.60
2022-08-02T16:02:09.150Z,23.80
2022-08-02T16:04:38.517Z,18.40
2022-08-02T16:07:07.695Z,15.80
2022-08-02T16:09:37.181Z,14.20
2022-08-02T16:12:06.962Z,13.60
2022-08-02T16:14:36.291Z,12.80
2022-08-02T16:17:05.527Z,12.00
2022-08-02T16:19:48.363Z,15.00
2022-08-02T16:22:05.948Z,15.60
2022-08-02T16:24:36.873Z,15.80
2022-08-02T16:27:06.105Z,13.20
2022-08-02T16:29:36.795Z,18.00
2022-08-02T16:32:07.245Z,15.00
2022-08-02T16:34:57.041Z,15.60
2022-08-02T16:37:08.500Z,19.60
2022-08-02T16:39:37.833Z,22.20
2022-08-02T16:42:07.135Z,18.40
2022-08-02T16:44:37.030Z,17.40
2022-08-02T16:47:07.075Z,16.60
2022-08-02T16:50:04.929Z,17.20
2022-08-02T16:54:38.824Z,18.00
2022-08-02T16:57:07.920Z,20.00
2022-08-02T16:59:42.859Z,17.60
2022-08-02T17:02:15.113Z,17.60
2022-08-02T17:04:39.312Z,17.20
2022-08-02T17:07:16.275Z,18.40
2022-08-02T17:10:04.174Z,20.20
2022-08-02T17:12:16.179Z,20.60
2022-08-02T17:14:54.806Z,20.00
2022-08-02T17:17:15.872Z,18.60
2022-08-02T17:19:46.624Z,15.40
2022-08-02T17:22:17.690Z,19.80
2022-08-02T17:24:48.436Z,20.80
2022-08-02T17:27:18.108Z,17.60
2022-08-02T17:29:49.196Z,20.60
2022-08-02T17:32:18.900Z,20.80
2022-08-02T17:34:56.425Z,21.75
2022-08-02T17:37:19.178Z,17.60
2022-08-02T17:39:51.986Z,18.80
2022-08-02T17:44:52.088Z,16.00
2022-08-02T17:47:21.787Z,16.40
2022-08-02T17:49:52.633Z,18.40
2022-08-02T17:52:50.230Z,16.80
2022-08-02T17:54:54.402Z,18.80
2022-08-02T17:57:23.499Z,18.60
2022-08-02T18:00:04.350Z,18.00
2022-08-02T18:02:32.367Z,17.60
2022-08-02T18:05:01.479Z,12.60
2022-08-02T18:07:49.585Z,15.80
2022-08-02T18:10:03.592Z,20.80
2022-08-02T18:12:34.681Z,18.20
2022-08-02T18:15:06.831Z,18.80
2022-08-02T18:17:34.596Z,19.20
2022-08-02T18:20:10.524Z,18.80
2022-08-02T18:22:35.861Z,21.20
2022-08-02T18:27:38.982Z,21.40
2022-08-02T18:30:09.176Z,17.40
2022-08-02T18:34:00.517Z,20.40
2022-08-02T18:35:10.755Z,17.80
2022-08-02T18:37:43.683Z,20.20
2022-08-02T18:40:11.436Z,20.00
2022-08-02T18:42:41.521Z,19.20
2022-08-02T18:45:19.885Z,20.00
2022-08-02T18:47:42.302Z,20.80
2022-08-02T18:50:13.239Z,19.60
2022-08-02T18:52:47.606Z,22.20
2022-08-02T18:55:17.144Z,20.40
2022-08-02T18:58:02.052Z,21.60
2022-08-02T19:00:20.571Z,19.20
2022-08-02T19:02:48.929Z,21.40
2022-08-02T19:05:21.054Z,24.40
2022-08-02T19:07:49.879Z,19.60
2022-08-02T19:10:19.723Z,18.60
2022-08-02T19:12:51.522Z,21.80
2022-08-02T19:15:19.567Z,14.40
2022-08-02T19:17:55.472Z,17.40
2022-08-02T19:20:19.918Z,58.00
2022-08-02T19:22:53.564Z,19.60
2022-08-02T19:25:21.077Z,24.00
2022-08-02T19:27:54.089Z,20.00
2022-08-02T19:30:25.838Z,17.80
2022-08-02T19:32:58.923Z,20.20
2022-08-02T19:35:30.648Z,21.60
2022-08-02T19:37:59.028Z,19.60
2022-08-02T19:40:29.031Z,19.00
2022-08-02T19:44:23.243Z,22.00
2022-08-02T19:45:49.113Z,18.00
2022-08-02T19:47:59.991Z,18.20
2022-08-02T19:50:29.291Z,16.20
2022-08-02T19:52:58.408Z,19.60
2022-08-02T19:56:01.281Z,12.80
2022-08-02T19:57:58.309Z,13.20
2022-08-02T20:00:27.715Z,21.80
2022-08-02T20:02:56.849Z,24.00
2022-08-02T20:05:27.553Z,23.20
2022-08-02T20:07:57.143Z,23.40
2022-08-02T20:10:27.503Z,33.80
2022-08-02T20:12:56.884Z,33.60
2022-08-02T20:15:51.796Z,44.75
2022-08-02T20:17:57.659Z,31.40
2022-08-02T20:20:30.499Z,28.00
2022-08-02T20:25:47.627Z,27.20
2022-08-02T20:28:16.728Z,19.00
2022-08-02T20:30:46.634Z,16.80
2022-08-02T20:33:21.791Z,20.00
2022-08-02T20:35:47.915Z,17.00
2022-08-02T20:38:17.010Z,11.60
2022-08-02T20:40:47.279Z,14.00
2022-08-02T20:43:16.762Z,14.60
2022-08-02T20:45:47.071Z,17.60
2022-08-02T20:48:16.303Z,16.00
2022-08-02T20:50:49.529Z,35.80
2022-08-02T20:53:23.321Z,15.00
2022-08-02T20:55:53.326Z,15.40
2022-08-02T20:58:27.405Z,10.40
2022-08-02T21:00:54.243Z,9.40
2022-08-02T21:03:23.315Z,11.00
2022-08-02T21:05:55.945Z,10.80
2022-08-02T21:08:24.109Z,16.60
2022-08-02T21:10:55.394Z,12.60
2022-08-02T21:13:26.117Z,12.00
2022-08-02T21:16:04.413Z,13.20
2022-08-02T21:18:34.207Z,14.40
2022-08-02T21:20:57.990Z,13.20
2022-08-02T21:23:28.518Z,13.40
2022-08-02T21:25:59.309Z,13.00
2022-08-02T21:28:43.296Z,11.40
2022-08-02T21:30:59.191Z,14.80
2022-08-02T21:33:28.767Z,13.60
2022-08-02T21:35:59.610Z,17.40
2022-08-02T21:38:35.769Z,41.50
2022-08-02T21:40:59.988Z,13.00
2022-08-02T21:43:38.417Z,13.60
2022-08-02T21:45:59.985Z,13.20
2022-08-02T21:48:29.285Z,11.00
2022-08-02T21:50:58.501Z,13.00
2022-08-02T21:53:42.789Z,8.60
2022-08-02T21:56:01.067Z,11.40
2022-08-02T21:58:29.278Z,13.00
2022-08-02T22:00:58.555Z,13.60
2022-08-02T22:03:29.640Z,13.80
2022-08-02T22:06:01.843Z,11.80
2022-08-02T22:08:32.561Z,14.40
2022-08-02T22:11:04.443Z,10.40
2022-08-02T22:13:38.641Z,13.20
2022-08-02T22:16:08.294Z,11.20
2022-08-02T22:18:38.133Z,13.60
2022-08-02T22:21:14.291Z,12.00
2022-08-02T22:23:50.372Z,13.60
2022-08-02T22:26:12.498Z,13.60
2022-08-02T22:28:51.090Z,12.80
2022-08-02T22:31:12.287Z,12.20
2022-08-02T22:34:01.826Z,12.60
2022-08-02T22:36:33.317Z,12.80
2022-08-02T22:39:03.164Z,9.20
2022-08-02T22:42:01.702Z,12.20
2022-08-02T22:44:03.303Z,12.20
2022-08-02T22:46:33.902Z,14.20
2022-08-02T22:49:03.333Z,13.80
2022-08-02T22:51:34.159Z,13.00
2022-08-02T22:54:03.494Z,13.80
2022-08-02T22:56:33.768Z,8.20
2022-08-02T22:58:51.180Z,16.80
2022-08-02T22:58:59.505Z,20.00
2022-08-02T22:59:06.461Z,17.80
2022-08-02T22:59:10.148Z,18.00
2022-08-02T23:01:34.907Z,17.80
2022-08-02T23:04:04.145Z,10.40
2022-08-02T23:06:33.316Z,26.20
2022-08-02T23:09:02.515Z,18.40
2022-08-02T23:11:31.737Z,17.00
2022-08-02T23:14:00.910Z,23.40
2022-08-02T23:16:48.067Z,14.60
2022-08-02T23:19:35.066Z,17.40
2022-08-02T23:22:04.343Z,18.00
2022-08-02T23:24:33.994Z,16.80
2022-08-02T23:27:03.276Z,14.60
2022-08-02T23:29:32.361Z,17.60
2022-08-02T23:32:01.851Z,16.00
2022-08-02T23:34:31.045Z,17.80
2022-08-02T23:37:00.242Z,18.60
2022-08-02T23:39:29.395Z,10.60
2022-08-02T23:41:58.951Z,18.20
2022-08-02T23:44:28.760Z,17.80
2022-08-02T23:47:00.621Z,17.00
2022-08-02T23:49:30.273Z,21.20
2022-08-02T23:52:01.870Z,17.80
2022-08-02T23:54:30.474Z,16.20
2022-08-02T23:56:59.694Z,18.20
2022-08-02T23:59:28.866Z,18.40
